sensor_id;sensor_type;location;lat;lon;timestamp;pressure;altitude;pressure_sealevel;temperature
15680;BMP180;15488;48.114;11.532;2023-04-24T00:02:22;94473.00;;;19.30
15680;BMP180;15488;48.114;11.532;2023-04-24T00:04:50;94471.00;;;19.20
15680;BMP180;15488;48.114;11.532;2023-04-24T00:07:17;94471.00;;;19.20
15680;BMP180;15488;48.114;11.532;2023-04-24T00:09:46;94466.00;;;19.20
15680;BMP180;15488;48.114;11.532;2023-04-24T00:12:13;94474.00;;;19.20
15680;BMP180;15488;48.114;11.532;2023-04-24T00:14:42;94466.00;;;19.20
15680;BMP180;15488;48.114;11.532;2023-04-24T00:17:10;94468.00;;;19.20
15680;BMP180;15488;48.114;11.532;2023-04-24T00:19:37;94474.00;;;19.10
15680;BMP180;15488;48.114;11.532;2023-04-24T00:22:05;94474.00;;;18.80
15680;BMP180;15488;48.114;11.532;2023-04-24T00:24:32;94475.00;;;19.10
15680;BMP180;15488;48.114;11.532;2023-04-24T00:27:01;94469.00;;;19.00
15680;BMP180;15488;48.114;11.532;2023-04-24T00:29:29;94466.00;;;19.00
15680;BMP180;15488;48.114;11.532;2023-04-24T00:31:58;94463.00;;;18.90
15680;BMP180;15488;48.114;11.532;2023-04-24T00:34:25;94464.00;;;18.90
15680;BMP180;15488;48.114;11.532;2023-04-24T00:36:53;94462.00;;;18.90
15680;BMP180;15488;48.114;11.532;2023-04-24T00:39:21;94466.00;;;18.90
15680;BMP180;15488;48.114;11.532;2023-04-24T00:41:49;94374.00;;;18.90
15680;BMP180;15488;48.114;11.532;2023-04-24T00:44:17;94461.00;;;18.80
15680;BMP180;15488;48.114;11.532;2023-04-24T00:46:44;94460.00;;;18.80
15680;BMP180;15488;48.114;11.532;2023-04-24T00:49:14;94458.00;;;18.80
15680;BMP180;15488;48.114;11.532;2023-04-24T00:51:41;94456.00;;;18.90
15680;BMP180;15488;48.114;11.532;2023-04-24T00:54:11;94455.00;;;18.90
15680;BMP180;15488;48.114;11.532;2023-04-24T00:56:39;94453.00;;;18.90
15680;BMP180;15488;48.114;11.532;2023-04-24T00:59:07;94461.00;;;18.90
15680;BMP180;15488;48.114;11.532;2023-04-24T01:01:35;94455.00;;;18.90
15680;BMP180;15488;48.114;11.532;2023-04-24T01:04:03;94462.00;;;18.90
15680;BMP180;15488;48.114;11.532;2023-04-24T01:06:31;94452.00;;;18.90
15680;BMP180;15488;48.114;11.532;2023-04-24T01:09:00;94455.00;;;18.80
15680;BMP180;15488;48.114;11.532;2023-04-24T01:11:27;94453.00;;;18.80
15680;BMP180;15488;48.114;11.532;2023-04-24T01:13:55;94453.00;;;18.80
15680;BMP180;15488;48.114;11.532;2023-04-24T01:16:23;94452.00;;;18.70
15680;BMP180;15488;48.114;11.532;2023-04-24T01:18:51;94454.00;;;18.80
15680;BMP180;15488;48.114;11.532;2023-04-24T01:21:18;94455.00;;;18.70
15680;BMP180;15488;48.114;11.532;2023-04-24T01:23:49;94441.00;;;18.70
15680;BMP180;15488;48.114;11.532;2023-04-24T01:26:18;94440.00;;;18.70
15680;BMP180;15488;48.114;11.532;2023-04-24T01:28:46;94442.00;;;18.80
15680;BMP180;15488;48.114;11.532;2023-04-24T01:31:15;94446.00;;;18.70
15680;BMP180;15488;48.114;11.532;2023-04-24T01:33:43;94436.00;;;18.70
15680;BMP180;15488;48.114;11.532;2023-04-24T01:36:11;94450.00;;;18.70
15680;BMP180;15488;48.114;11.532;2023-04-24T01:38:38;94440.00;;;18.70
15680;BMP180;15488;48.114;11.532;2023-04-24T01:41:07;94444.00;;;18.70
15680;BMP180;15488;48.114;11.532;2023-04-24T01:43:35;94441.00;;;18.70
15680;BMP180;15488;48.114;11.532;2023-04-24T01:46:02;94442.00;;;18.70
15680;BMP180;15488;48.114;11.532;2023-04-24T01:48:30;94439.00;;;18.70
15680;BMP180;15488;48.114;11.532;2023-04-24T01:50:59;94442.00;;;18.60
15680;BMP180;15488;48.114;11.532;2023-04-24T01:53:26;94446.00;;;18.60
15680;BMP180;15488;48.114;11.532;2023-04-24T01:55:54;94444.00;;;18.60
15680;BMP180;15488;48.114;11.532;2023-04-24T01:58:23;94446.00;;;18.60
15680;BMP180;15488;48.114;11.532;2023-04-24T02:00:50;94441.00;;;18.70
15680;BMP180;15488;48.114;11.532;2023-04-24T02:03:18;94442.00;;;18.60
15680;BMP180;15488;48.114;11.532;2023-04-24T02:05:45;94443.00;;;18.60
15680;BMP180;15488;48.114;11.532;2023-04-24T02:08:13;94441.00;;;18.60
15680;BMP180;15488;48.114;11.532;2023-04-24T02:10:40;94443.00;;;18.60
15680;BMP180;15488;48.114;11.532;2023-04-24T02:13:08;94448.00;;;18.60
15680;BMP180;15488;48.114;11.532;2023-04-24T02:15:37;94443.00;;;18.50
15680;BMP180;15488;48.114;11.532;2023-04-24T02:18:04;94438.00;;;18.50
15680;BMP180;15488;48.114;11.532;2023-04-24T02:20:32;94436.00;;;18.50
15680;BMP180;15488;48.114;11.532;2023-04-24T02:23:01;94435.00;;;18.50
15680;BMP180;15488;48.114;11.532;2023-04-24T02:25:28;94440.00;;;18.50
15680;BMP180;15488;48.114;11.532;2023-04-24T02:27:56;94434.00;;;18.50
15680;BMP180;15488;48.114;11.532;2023-04-24T02:30:23;94432.00;;;18.50
15680;BMP180;15488;48.114;11.532;2023-04-24T02:32:52;94440.00;;;18.40
15680;BMP180;15488;48.114;11.532;2023-04-24T02:35:20;94439.00;;;18.40
15680;BMP180;15488;48.114;11.532;2023-04-24T02:37:47;94436.00;;;18.40
15680;BMP180;15488;48.114;11.532;2023-04-24T02:40:15;94444.00;;;18.40
15680;BMP180;15488;48.114;11.532;2023-04-24T02:42:42;94439.00;;;18.40
15680;BMP180;15488;48.114;11.532;2023-04-24T02:45:11;94439.00;;;18.40
15680;BMP180;15488;48.114;11.532;2023-04-24T02:47:38;94440.00;;;18.40
15680;BMP180;15488;48.114;11.532;2023-04-24T02:50:08;94445.00;;;18.40
15680;BMP180;15488;48.114;11.532;2023-04-24T02:52:35;94440.00;;;18.40
15680;BMP180;15488;48.114;11.532;2023-04-24T02:55:04;94444.00;;;18.40
15680;BMP180;15488;48.114;11.532;2023-04-24T02:57:32;94445.00;;;18.40
15680;BMP180;15488;48.114;11.532;2023-04-24T02:59:59;94443.00;;;18.40
15680;BMP180;15488;48.114;11.532;2023-04-24T03:02:27;94445.00;;;18.30
15680;BMP180;15488;48.114;11.532;2023-04-24T03:04:54;94441.00;;;18.30
15680;BMP180;15488;48.114;11.532;2023-04-24T03:07:24;94440.00;;;18.30
15680;BMP180;15488;48.114;11.532;2023-04-24T03:09:51;94440.00;;;18.30
15680;BMP180;15488;48.114;11.532;2023-04-24T03:12:19;94452.00;;;18.30
15680;BMP180;15488;48.114;11.532;2023-04-24T03:14:46;94461.00;;;18.30
15680;BMP180;15488;48.114;11.532;2023-04-24T03:17:14;94440.00;;;18.30
15680;BMP180;15488;48.114;11.532;2023-04-24T03:19:41;94443.00;;;18.30
15680;BMP180;15488;48.114;11.532;2023-04-24T03:22:09;94447.00;;;18.30
15680;BMP180;15488;48.114;11.532;2023-04-24T03:24:38;94453.00;;;18.30
15680;BMP180;15488;48.114;11.532;2023-04-24T03:27:06;94445.00;;;18.30
15680;BMP180;15488;48.114;11.532;2023-04-24T03:29:33;94436.00;;;18.30
15680;BMP180;15488;48.114;11.532;2023-04-24T03:32:01;94444.00;;;18.30
15680;BMP180;15488;48.114;11.532;2023-04-24T03:34:28;94449.00;;;18.20
15680;BMP180;15488;48.114;11.532;2023-04-24T03:36:56;94441.00;;;18.20
15680;BMP180;15488;48.114;11.532;2023-04-24T03:39:23;94449.00;;;18.20
15680;BMP180;15488;48.114;11.532;2023-04-24T03:41:52;94445.00;;;18.20
15680;BMP180;15488;48.114;11.532;2023-04-24T03:44:20;94445.00;;;18.20
15680;BMP180;15488;48.114;11.532;2023-04-24T03:46:47;94439.00;;;18.20
15680;BMP180;15488;48.114;11.532;2023-04-24T03:49:15;94439.00;;;18.20
15680;BMP180;15488;48.114;11.532;2023-04-24T03:51:42;94435.00;;;18.10
15680;BMP180;15488;48.114;11.532;2023-04-24T03:54:09;94437.00;;;18.10
15680;BMP180;15488;48.114;11.532;2023-04-24T03:56:37;94435.00;;;18.10
15680;BMP180;15488;48.114;11.532;2023-04-24T03:59:06;94432.00;;;18.10
15680;BMP180;15488;48.114;11.532;2023-04-24T04:01:33;94424.00;;;18.10
15680;BMP180;15488;48.114;11.532;2023-04-24T04:04:03;94433.00;;;18.10
15680;BMP180;15488;48.114;11.532;2023-04-24T04:06:30;94424.00;;;18.00
15680;BMP180;15488;48.114;11.532;2023-04-24T04:08:58;94419.00;;;18.00
15680;BMP180;15488;48.114;11.532;2023-04-24T04:11:26;94418.00;;;17.90
15680;BMP180;15488;48.114;11.532;2023-04-24T04:13:54;94427.00;;;17.90
15680;BMP180;15488;48.114;11.532;2023-04-24T04:16:22;94429.00;;;17.90
15680;BMP180;15488;48.114;11.532;2023-04-24T04:18:50;94422.00;;;17.80
15680;BMP180;15488;48.114;11.532;2023-04-24T04:21:18;94434.00;;;17.80
15680;BMP180;15488;48.114;11.532;2023-04-24T04:23:45;94424.00;;;17.70
15680;BMP180;15488;48.114;11.532;2023-04-24T04:26:13;94435.00;;;17.70
15680;BMP180;15488;48.114;11.532;2023-04-24T04:28:40;94432.00;;;17.60
15680;BMP180;15488;48.114;11.532;2023-04-24T04:31:08;94437.00;;;17.60
15680;BMP180;15488;48.114;11.532;2023-04-24T04:33:37;94429.00;;;17.60
15680;BMP180;15488;48.114;11.532;2023-04-24T04:36:05;94449.00;;;17.60
15680;BMP180;15488;48.114;11.532;2023-04-24T04:38:33;94437.00;;;17.60
15680;BMP180;15488;48.114;11.532;2023-04-24T04:41:01;94444.00;;;17.50
15680;BMP180;15488;48.114;11.532;2023-04-24T04:43:29;94442.00;;;17.60
15680;BMP180;15488;48.114;11.532;2023-04-24T04:45:58;94454.00;;;17.50
15680;BMP180;15488;48.114;11.532;2023-04-24T04:48:26;94448.00;;;17.50
15680;BMP180;15488;48.114;11.532;2023-04-24T04:50:56;94448.00;;;17.50
15680;BMP180;15488;48.114;11.532;2023-04-24T04:53:23;94455.00;;;17.50
15680;BMP180;15488;48.114;11.532;2023-04-24T04:55:51;94456.00;;;17.50
15680;BMP180;15488;48.114;11.532;2023-04-24T04:58:18;94448.00;;;17.50
15680;BMP180;15488;48.114;11.532;2023-04-24T05:00:46;94465.00;;;17.50
15680;BMP180;15488;48.114;11.532;2023-04-24T05:03:13;94459.00;;;17.50
15680;BMP180;15488;48.114;11.532;2023-04-24T05:05:41;94457.00;;;17.60
15680;BMP180;15488;48.114;11.532;2023-04-24T05:08:09;94465.00;;;17.60
15680;BMP180;15488;48.114;11.532;2023-04-24T05:10:37;94461.00;;;17.60
15680;BMP180;15488;48.114;11.532;2023-04-24T05:13:04;94469.00;;;17.60
15680;BMP180;15488;48.114;11.532;2023-04-24T05:15:32;94467.00;;;17.60
15680;BMP180;15488;48.114;11.532;2023-04-24T05:18:00;94469.00;;;17.70
15680;BMP180;15488;48.114;11.532;2023-04-24T05:20:27;94477.00;;;17.70
15680;BMP180;15488;48.114;11.532;2023-04-24T05:22:54;94479.00;;;17.70
15680;BMP180;15488;48.114;11.532;2023-04-24T05:25:23;94478.00;;;17.70
15680;BMP180;15488;48.114;11.532;2023-04-24T05:27:51;94485.00;;;17.80
15680;BMP180;15488;48.114;11.532;2023-04-24T05:30:19;94482.00;;;17.80
15680;BMP180;15488;48.114;11.532;2023-04-24T05:32:49;94487.00;;;17.70
15680;BMP180;15488;48.114;11.532;2023-04-24T05:35:17;94476.00;;;17.80
15680;BMP180;15488;48.114;11.532;2023-04-24T05:37:45;94478.00;;;17.80
15680;BMP180;15488;48.114;11.532;2023-04-24T05:40:13;94476.00;;;17.80
15680;BMP180;15488;48.114;11.532;2023-04-24T05:42:42;94384.00;;;17.80
15680;BMP180;15488;48.114;11.532;2023-04-24T05:45:09;94476.00;;;17.80
15680;BMP180;15488;48.114;11.532;2023-04-24T05:47:42;94476.00;;;17.90
15680;BMP180;15488;48.114;11.532;2023-04-24T05:50:11;94477.00;;;17.80
15680;BMP180;15488;48.114;11.532;2023-04-24T05:52:38;94480.00;;;17.80
15680;BMP180;15488;48.114;11.532;2023-04-24T05:55:06;94477.00;;;17.80
15680;BMP180;15488;48.114;11.532;2023-04-24T05:57:34;94478.00;;;17.90
15680;BMP180;15488;48.114;11.532;2023-04-24T06:00:03;94484.00;;;17.90
15680;BMP180;15488;48.114;11.532;2023-04-24T06:02:32;94486.00;;;17.90
15680;BMP180;15488;48.114;11.532;2023-04-24T06:04:59;94479.00;;;17.90
15680;BMP180;15488;48.114;11.532;2023-04-24T06:07:27;94483.00;;;17.90
15680;BMP180;15488;48.114;11.532;2023-04-24T06:09:54;94488.00;;;17.90
15680;BMP180;15488;48.114;11.532;2023-04-24T06:12:22;94486.00;;;17.90
15680;BMP180;15488;48.114;11.532;2023-04-24T06:14:50;94485.00;;;18.00
15680;BMP180;15488;48.114;11.532;2023-04-24T06:17:19;94491.00;;;17.90
15680;BMP180;15488;48.114;11.532;2023-04-24T06:19:47;94494.00;;;18.00
15680;BMP180;15488;48.114;11.532;2023-04-24T06:22:14;94499.00;;;18.00
15680;BMP180;15488;48.114;11.532;2023-04-24T06:24:42;94493.00;;;18.00
15680;BMP180;15488;48.114;11.532;2023-04-24T06:27:09;94497.00;;;18.10
15680;BMP180;15488;48.114;11.532;2023-04-24T06:29:37;94494.00;;;18.10
15680;BMP180;15488;48.114;11.532;2023-04-24T06:32:05;94491.00;;;18.10
15680;BMP180;15488;48.114;11.532;2023-04-24T06:34:33;94495.00;;;18.10
15680;BMP180;15488;48.114;11.532;2023-04-24T06:37:01;94492.00;;;18.10
15680;BMP180;15488;48.114;11.532;2023-04-24T06:39:30;94494.00;;;18.20
15680;BMP180;15488;48.114;11.532;2023-04-24T06:41:58;94497.00;;;18.10
15680;BMP180;15488;48.114;11.532;2023-04-24T06:44:26;94501.00;;;18.10
15680;BMP180;15488;48.114;11.532;2023-04-24T06:46:53;94505.00;;;18.10
15680;BMP180;15488;48.114;11.532;2023-04-24T06:49:21;94510.00;;;18.20
15680;BMP180;15488;48.114;11.532;2023-04-24T06:51:50;94507.00;;;18.20
15680;BMP180;15488;48.114;11.532;2023-04-24T06:54:17;94506.00;;;18.20
15680;BMP180;15488;48.114;11.532;2023-04-24T06:56:45;94517.00;;;18.20
15680;BMP180;15488;48.114;11.532;2023-04-24T06:59:13;94502.00;;;18.30
15680;BMP180;15488;48.114;11.532;2023-04-24T07:01:41;94519.00;;;18.30
15680;BMP180;15488;48.114;11.532;2023-04-24T07:04:08;94515.00;;;18.40
15680;BMP180;15488;48.114;11.532;2023-04-24T07:06:36;94506.00;;;18.40
15680;BMP180;15488;48.114;11.532;2023-04-24T07:09:05;94508.00;;;18.30
15680;BMP180;15488;48.114;11.532;2023-04-24T07:11:33;94512.00;;;18.40
15680;BMP180;15488;48.114;11.532;2023-04-24T07:14:02;94505.00;;;18.40
15680;BMP180;15488;48.114;11.532;2023-04-24T07:16:30;94518.00;;;18.50
15680;BMP180;15488;48.114;11.532;2023-04-24T07:18:57;94515.00;;;18.50
15680;BMP180;15488;48.114;11.532;2023-04-24T07:21:25;94525.00;;;18.50
15680;BMP180;15488;48.114;11.532;2023-04-24T07:23:53;94518.00;;;18.50
15680;BMP180;15488;48.114;11.532;2023-04-24T07:26:22;94525.00;;;18.60
15680;BMP180;15488;48.114;11.532;2023-04-24T07:28:49;94529.00;;;18.60
15680;BMP180;15488;48.114;11.532;2023-04-24T07:31:17;94520.00;;;18.60
15680;BMP180;15488;48.114;11.532;2023-04-24T07:33:44;94529.00;;;18.60
15680;BMP180;15488;48.114;11.532;2023-04-24T07:36:12;94534.00;;;18.60
15680;BMP180;15488;48.114;11.532;2023-04-24T07:38:43;94535.00;;;18.60
15680;BMP180;15488;48.114;11.532;2023-04-24T07:41:10;94541.00;;;18.60
15680;BMP180;15488;48.114;11.532;2023-04-24T07:43:39;94546.00;;;18.60
15680;BMP180;15488;48.114;11.532;2023-04-24T07:46:07;94541.00;;;18.60
15680;BMP180;15488;48.114;11.532;2023-04-24T07:48:34;94545.00;;;18.60
15680;BMP180;15488;48.114;11.532;2023-04-24T07:51:02;94548.00;;;18.70
15680;BMP180;15488;48.114;11.532;2023-04-24T07:53:29;94544.00;;;18.70
15680;BMP180;15488;48.114;11.532;2023-04-24T07:55:57;94553.00;;;18.70
15680;BMP180;15488;48.114;11.532;2023-04-24T07:58:24;94548.00;;;18.70
15680;BMP180;15488;48.114;11.532;2023-04-24T08:00:53;94543.00;;;18.70
15680;BMP180;15488;48.114;11.532;2023-04-24T08:03:21;94548.00;;;18.70
15680;BMP180;15488;48.114;11.532;2023-04-24T08:05:48;94560.00;;;18.70
15680;BMP180;15488;48.114;11.532;2023-04-24T08:08:17;94555.00;;;18.80
15680;BMP180;15488;48.114;11.532;2023-04-24T08:10:44;94551.00;;;18.90
15680;BMP180;15488;48.114;11.532;2023-04-24T08:13:12;94549.00;;;18.80
15680;BMP180;15488;48.114;11.532;2023-04-24T08:15:39;94546.00;;;18.20
15680;BMP180;15488;48.114;11.532;2023-04-24T08:18:08;94551.00;;;18.70
15680;BMP180;15488;48.114;11.532;2023-04-24T08:20:37;94555.00;;;18.90
15680;BMP180;15488;48.114;11.532;2023-04-24T08:23:05;94558.00;;;18.80
15680;BMP180;15488;48.114;11.532;2023-04-24T08:25:33;94560.00;;;18.80
15680;BMP180;15488;48.114;11.532;2023-04-24T08:28:02;94568.00;;;18.70
15680;BMP180;15488;48.114;11.532;2023-04-24T08:30:30;94577.00;;;18.70
15680;BMP180;15488;48.114;11.532;2023-04-24T08:32:58;94573.00;;;18.70
15680;BMP180;15488;48.114;11.532;2023-04-24T08:35:27;94588.00;;;18.70
15680;BMP180;15488;48.114;11.532;2023-04-24T08:37:54;94600.00;;;18.60
15680;BMP180;15488;48.114;11.532;2023-04-24T08:40:28;94597.00;;;18.60
15680;BMP180;15488;48.114;11.532;2023-04-24T08:42:56;94600.00;;;18.50
15680;BMP180;15488;48.114;11.532;2023-04-24T08:45:24;94609.00;;;18.50
15680;BMP180;15488;48.114;11.532;2023-04-24T08:47:53;94603.00;;;18.60
15680;BMP180;15488;48.114;11.532;2023-04-24T08:50:21;94609.00;;;18.50
15680;BMP180;15488;48.114;11.532;2023-04-24T08:52:50;94641.00;;;18.50
15680;BMP180;15488;48.114;11.532;2023-04-24T08:55:19;94625.00;;;18.50
15680;BMP180;15488;48.114;11.532;2023-04-24T08:57:51;94617.00;;;18.50
15680;BMP180;15488;48.114;11.532;2023-04-24T09:00:20;94622.00;;;18.50
15680;BMP180;15488;48.114;11.532;2023-04-24T09:02:50;94624.00;;;18.50
15680;BMP180;15488;48.114;11.532;2023-04-24T09:05:17;94622.00;;;18.50
15680;BMP180;15488;48.114;11.532;2023-04-24T09:07:48;94633.00;;;18.50
15680;BMP180;15488;48.114;11.532;2023-04-24T09:10:18;94623.00;;;18.50
15680;BMP180;15488;48.114;11.532;2023-04-24T09:12:45;94620.00;;;18.50
15680;BMP180;15488;48.114;11.532;2023-04-24T09:15:13;94620.00;;;18.50
15680;BMP180;15488;48.114;11.532;2023-04-24T09:17:41;94621.00;;;18.50
15680;BMP180;15488;48.114;11.532;2023-04-24T09:20:09;94622.00;;;18.50
15680;BMP180;15488;48.114;11.532;2023-04-24T09:22:37;94617.00;;;18.50
15680;BMP180;15488;48.114;11.532;2023-04-24T09:25:06;94624.00;;;18.60
15680;BMP180;15488;48.114;11.532;2023-04-24T09:27:36;94622.00;;;18.50
15680;BMP180;15488;48.114;11.532;2023-04-24T09:30:04;94625.00;;;18.60
15680;BMP180;15488;48.114;11.532;2023-04-24T09:32:33;94633.00;;;18.60
15680;BMP180;15488;48.114;11.532;2023-04-24T09:35:12;94624.00;;;18.60
15680;BMP180;15488;48.114;11.532;2023-04-24T09:37:40;94612.00;;;18.70
15680;BMP180;15488;48.114;11.532;2023-04-24T09:40:14;94627.00;;;18.70
15680;BMP180;15488;48.114;11.532;2023-04-24T09:42:46;94621.00;;;18.80
15680;BMP180;15488;48.114;11.532;2023-04-24T09:45:14;94626.00;;;18.70
15680;BMP180;15488;48.114;11.532;2023-04-24T09:47:41;94619.00;;;18.80
15680;BMP180;15488;48.114;11.532;2023-04-24T09:50:11;94621.00;;;18.70
15680;BMP180;15488;48.114;11.532;2023-04-24T09:52:46;94636.00;;;18.70
15680;BMP180;15488;48.114;11.532;2023-04-24T09:55:17;94616.00;;;18.80
15680;BMP180;15488;48.114;11.532;2023-04-24T09:57:51;94611.00;;;18.90
15680;BMP180;15488;48.114;11.532;2023-04-24T10:00:23;94613.00;;;18.90
15680;BMP180;15488;48.114;11.532;2023-04-24T10:02:58;94605.00;;;19.00
15680;BMP180;15488;48.114;11.532;2023-04-24T10:05:29;94604.00;;;19.10
15680;BMP180;15488;48.114;11.532;2023-04-24T10:07:59;94609.00;;;19.20
15680;BMP180;15488;48.114;11.532;2023-04-24T10:10:27;94608.00;;;19.20
15680;BMP180;15488;48.114;11.532;2023-04-24T10:12:56;94608.00;;;19.20
15680;BMP180;15488;48.114;11.532;2023-04-24T10:15:24;94619.00;;;19.30
15680;BMP180;15488;48.114;11.532;2023-04-24T10:17:53;94611.00;;;19.30
15680;BMP180;15488;48.114;11.532;2023-04-24T10:20:22;94611.00;;;19.40
15680;BMP180;15488;48.114;11.532;2023-04-24T10:22:52;94616.00;;;19.40
15680;BMP180;15488;48.114;11.532;2023-04-24T10:25:21;94605.00;;;19.50
15680;BMP180;15488;48.114;11.532;2023-04-24T10:27:50;94614.00;;;19.60
15680;BMP180;15488;48.114;11.532;2023-04-24T10:30:20;94595.00;;;19.60
15680;BMP180;15488;48.114;11.532;2023-04-24T10:32:47;94596.00;;;19.60
15680;BMP180;15488;48.114;11.532;2023-04-24T10:35:16;94599.00;;;19.70
15680;BMP180;15488;48.114;11.532;2023-04-24T10:37:46;94595.00;;;19.70
15680;BMP180;15488;48.114;11.532;2023-04-24T10:40:18;94595.00;;;19.70
15680;BMP180;15488;48.114;11.532;2023-04-24T10:42:48;94599.00;;;19.70
15680;BMP180;15488;48.114;11.532;2023-04-24T10:45:20;94596.00;;;19.70
15680;BMP180;15488;48.114;11.532;2023-04-24T10:47:57;94606.00;;;19.40
15680;BMP180;15488;48.114;11.532;2023-04-24T10:50:27;94655.00;;;19.80
15680;BMP180;15488;48.114;11.532;2023-04-24T10:53:08;94672.00;;;19.80
15680;BMP180;15488;48.114;11.532;2023-04-24T10:55:43;94667.00;;;19.80
15680;BMP180;15488;48.114;11.532;2023-04-24T10:58:11;94653.00;;;19.70
15680;BMP180;15488;48.114;11.532;2023-04-24T11:00:41;94657.00;;;19.70
15680;BMP180;15488;48.114;11.532;2023-04-24T11:03:23;94647.00;;;19.60
15680;BMP180;15488;48.114;11.532;2023-04-24T11:05:55;94641.00;;;19.60
15680;BMP180;15488;48.114;11.532;2023-04-24T11:08:25;94641.00;;;19.50
15680;BMP180;15488;48.114;11.532;2023-04-24T11:11:07;94635.00;;;19.50
15680;BMP180;15488;48.114;11.532;2023-04-24T11:14:03;94638.00;;;19.50
15680;BMP180;15488;48.114;11.532;2023-04-24T11:16:35;94621.00;;;19.50
15680;BMP180;15488;48.114;11.532;2023-04-24T11:19:06;94628.00;;;19.60
15680;BMP180;15488;48.114;11.532;2023-04-24T11:21:41;94625.00;;;19.50
15680;BMP180;15488;48.114;11.532;2023-04-24T11:24:29;94651.00;;;19.60
15680;BMP180;15488;48.114;11.532;2023-04-24T11:26:59;94637.00;;;19.60
15680;BMP180;15488;48.114;11.532;2023-04-24T11:29:41;94641.00;;;19.60
15680;BMP180;15488;48.114;11.532;2023-04-24T11:32:22;94619.00;;;19.80
15680;BMP180;15488;48.114;11.532;2023-04-24T11:34:51;94638.00;;;19.80
15680;BMP180;15488;48.114;11.532;2023-04-24T11:37:19;94626.00;;;19.80
15680;BMP180;15488;48.114;11.532;2023-04-24T11:39:47;94629.00;;;19.90
15680;BMP180;15488;48.114;11.532;2023-04-24T11:42:16;94635.00;;;19.90
15680;BMP180;15488;48.114;11.532;2023-04-24T11:44:46;94627.00;;;20.00
15680;BMP180;15488;48.114;11.532;2023-04-24T11:47:14;94629.00;;;20.20
15680;BMP180;15488;48.114;11.532;2023-04-24T11:49:43;94631.00;;;19.80
15680;BMP180;15488;48.114;11.532;2023-04-24T11:52:11;94635.00;;;20.20
15680;BMP180;15488;48.114;11.532;2023-04-24T11:54:47;94639.00;;;20.30
15680;BMP180;15488;48.114;11.532;2023-04-24T11:57:15;94638.00;;;20.30
15680;BMP180;15488;48.114;11.532;2023-04-24T11:59:43;94651.00;;;20.30
15680;BMP180;15488;48.114;11.532;2023-04-24T12:02:21;94640.00;;;20.30
15680;BMP180;15488;48.114;11.532;2023-04-24T12:04:50;94640.00;;;20.30
15680;BMP180;15488;48.114;11.532;2023-04-24T12:07:18;94640.00;;;20.20
15680;BMP180;15488;48.114;11.532;2023-04-24T12:09:47;94633.00;;;20.20
15680;BMP180;15488;48.114;11.532;2023-04-24T12:12:16;94628.00;;;20.30
15680;BMP180;15488;48.114;11.532;2023-04-24T12:14:46;94624.00;;;20.30
15680;BMP180;15488;48.114;11.532;2023-04-24T12:17:14;94613.00;;;20.40
15680;BMP180;15488;48.114;11.532;2023-04-24T12:19:46;94620.00;;;20.30
15680;BMP180;15488;48.114;11.532;2023-04-24T12:22:15;94614.00;;;20.30
15680;BMP180;15488;48.114;11.532;2023-04-24T12:25:00;94622.00;;;20.40
15680;BMP180;15488;48.114;11.532;2023-04-24T12:27:30;94622.00;;;20.40
15680;BMP180;15488;48.114;11.532;2023-04-24T12:29:59;94632.00;;;20.40
15680;BMP180;15488;48.114;11.532;2023-04-24T12:32:27;94621.00;;;20.50
15680;BMP180;15488;48.114;11.532;2023-04-24T12:34:55;94628.00;;;20.50
15680;BMP180;15488;48.114;11.532;2023-04-24T12:37:26;94625.00;;;20.60
15680;BMP180;15488;48.114;11.532;2023-04-24T12:40:01;94613.00;;;20.60
15680;BMP180;15488;48.114;11.532;2023-04-24T12:42:29;94608.00;;;20.80
15680;BMP180;15488;48.114;11.532;2023-04-24T12:44:58;94628.00;;;20.80
15680;BMP180;15488;48.114;11.532;2023-04-24T12:47:27;94609.00;;;20.80
15680;BMP180;15488;48.114;11.532;2023-04-24T12:49:55;94619.00;;;20.80
15680;BMP180;15488;48.114;11.532;2023-04-24T12:52:24;94619.00;;;20.80
15680;BMP180;15488;48.114;11.532;2023-04-24T12:54:54;94624.00;;;20.80
15680;BMP180;15488;48.114;11.532;2023-04-24T12:57:22;94631.00;;;20.90
15680;BMP180;15488;48.114;11.532;2023-04-24T12:59:49;94633.00;;;21.00
15680;BMP180;15488;48.114;11.532;2023-04-24T13:02:17;94629.00;;;20.80
15680;BMP180;15488;48.114;11.532;2023-04-24T13:04:45;94629.00;;;20.90
15680;BMP180;15488;48.114;11.532;2023-04-24T13:07:13;94645.00;;;20.90
15680;BMP180;15488;48.114;11.532;2023-04-24T13:09:43;94639.00;;;21.00
15680;BMP180;15488;48.114;11.532;2023-04-24T13:12:11;94639.00;;;21.00
15680;BMP180;15488;48.114;11.532;2023-04-24T13:14:39;94628.00;;;21.10
15680;BMP180;15488;48.114;11.532;2023-04-24T13:17:06;94625.00;;;21.30
15680;BMP180;15488;48.114;11.532;2023-04-24T13:19:36;94641.00;;;21.30
15680;BMP180;15488;48.114;11.532;2023-04-24T13:22:04;94657.00;;;21.30
15680;BMP180;15488;48.114;11.532;2023-04-24T13:24:32;94656.00;;;21.30
15680;BMP180;15488;48.114;11.532;2023-04-24T13:27:02;94655.00;;;21.30
15680;BMP180;15488;48.114;11.532;2023-04-24T13:29:29;94642.00;;;21.30
15680;BMP180;15488;48.114;11.532;2023-04-24T13:31:57;94646.00;;;21.40
15680;BMP180;15488;48.114;11.532;2023-04-24T13:34:25;94643.00;;;21.50
15680;BMP180;15488;48.114;11.532;2023-04-24T13:36:54;94636.00;;;21.60
15680;BMP180;15488;48.114;11.532;2023-04-24T13:39:22;94648.00;;;21.70
15680;BMP180;15488;48.114;11.532;2023-04-24T13:41:50;94642.00;;;21.60
15680;BMP180;15488;48.114;11.532;2023-04-24T13:44:19;94640.00;;;21.50
15680;BMP180;15488;48.114;11.532;2023-04-24T13:46:50;94640.00;;;21.50
15680;BMP180;15488;48.114;11.532;2023-04-24T13:49:18;94640.00;;;21.50
15680;BMP180;15488;48.114;11.532;2023-04-24T13:51:45;94634.00;;;21.50
15680;BMP180;15488;48.114;11.532;2023-04-24T13:54:13;94636.00;;;21.50
15680;BMP180;15488;48.114;11.532;2023-04-24T13:56:41;94633.00;;;21.60
15680;BMP180;15488;48.114;11.532;2023-04-24T13:59:09;94634.00;;;21.50
15680;BMP180;15488;48.114;11.532;2023-04-24T14:01:38;94636.00;;;21.50
15680;BMP180;15488;48.114;11.532;2023-04-24T14:04:05;94639.00;;;21.50
15680;BMP180;15488;48.114;11.532;2023-04-24T14:06:32;94630.00;;;21.50